Time;durP1;ratioP1;P1;durP2;ratioP2;P2;SDS_P1;SDS_P2;PMS_P1;PMS_P2;Temp;Humidity;BMP_temperature;BMP_pressure;BME280_temperature;BME280_humidity;BME280_pressure;Samples;Min_cycle;Max_cycle;Signal;HPM_P1;HPM_P2
2021/01/24 00:02:44;;;;;;;8.07;6.50;;;;;;;;;;4888125;29;20614;-88
2021/01/24 00:05:48;;;;;;;8.97;5.87;;;;;;;;;;4888406;29;20653;-88
2021/01/24 00:08:52;;;;;;;8.03;5.93;;;;;;;;;;4888337;29;20739;-89
2021/01/24 00:11:57;;;;;;;10.07;6.20;;;;;;;;;;4894810;29;20660;-89
2021/01/24 00:15:01;;;;;;;8.40;6.10;;;;;;;;;;4907334;29;20886;-89
2021/01/24 00:18:05;;;;;;;7.70;5.80;;;;;;;;;;4917579;29;20557;-89
2021/01/24 00:21:09;;;;;;;9.93;7.10;;;;;;;;;;4872840;29;20601;-89
2021/01/24 00:24:13;;;;;;;8.40;6.60;;;;;;;;;;4898785;29;20661;-88
2021/01/24 00:27:18;;;;;;;10.27;6.87;;;;;;;;;;4899320;29;21024;-88
2021/01/24 00:30:22;;;;;;;8.30;6.60;;;;;;;;;;4906691;29;20608;-88
2021/01/24 00:33:26;;;;;;;9.17;6.90;;;;;;;;;;4917542;29;20604;-89
2021/01/24 00:36:31;;;;;;;9.73;7.10;;;;;;;;;;4906574;29;20628;-89
2021/01/24 00:39:35;;;;;;;10.07;7.10;;;;;;;;;;4903986;29;20969;-87
2021/01/24 00:42:40;;;;;;;9.10;6.70;;;;;;;;;;4876870;29;20613;-89
2021/01/24 00:45:45;;;;;;;9.33;6.50;;;;;;;;;;4898297;29;20633;-89
2021/01/24 00:48:49;;;;;;;10.73;7.17;;;;;;;;;;4888658;29;20575;-88
2021/01/24 00:51:53;;;;;;;8.67;6.87;;;;;;;;;;4885760;29;20586;-89
2021/01/24 00:54:58;;;;;;;9.73;7.10;;;;;;;;;;4879725;29;21090;-89
2021/01/24 00:58:02;;;;;;;11.13;7.93;;;;;;;;;;4879536;29;20551;-89
2021/01/24 01:01:06;;;;;;;9.70;7.60;;;;;;;;;;4879440;29;20606;-89
2021/01/24 01:04:10;;;;;;;9.17;7.63;;;;;;;;;;4880092;29;20599;-87
2021/01/24 01:07:14;;;;;;;10.73;7.80;;;;;;;;;;4905890;29;20640;-86
2021/01/24 01:10:18;;;;;;;9.17;7.40;;;;;;;;;;4916782;29;20604;-89
2021/01/24 01:13:23;;;;;;;10.57;8.00;;;;;;;;;;4905903;29;20612;-89
2021/01/24 01:16:27;;;;;;;11.57;7.93;;;;;;;;;;4908399;29;20629;-89
2021/01/24 01:19:31;;;;;;;10.23;8.07;;;;;;;;;;4876606;29;20562;-89
2021/01/24 01:22:36;;;;;;;10.07;7.70;;;;;;;;;;4887469;29;20550;-89
2021/01/24 01:25:40;;;;;;;11.13;7.93;;;;;;;;;;4886762;29;22201;-89
2021/01/24 01:28:44;;;;;;;9.70;7.67;;;;;;;;;;4897701;29;20605;-89
2021/01/24 01:31:49;;;;;;;8.60;6.47;;;;;;;;;;4897691;29;20579;-90
2021/01/24 01:34:53;;;;;;;6.13;5.23;;;;;;;;;;4897597;29;21100;-90
2021/01/24 01:37:57;;;;;;;6.60;4.63;;;;;;;;;;4897844;29;20554;-88
2021/01/24 01:41:01;;;;;;;6.43;4.60;;;;;;;;;;4897591;29;20617;-88
2021/01/24 01:44:06;;;;;;;5.10;3.50;;;;;;;;;;4876226;29;20617;-87
2021/01/24 01:47:21;;;;;;;4.03;3.60;;;;;;;;;;4897810;29;20633;-86
2021/01/24 01:50:25;;;;;;;4.90;3.73;;;;;;;;;;4897888;29;20602;-87
2021/01/24 01:53:29;;;;;;;4.67;3.80;;;;;;;;;;4898246;29;20554;-87
2021/01/24 01:56:34;;;;;;;5.30;3.93;;;;;;;;;;4887617;29;20617;-87
2021/01/24 01:59:38;;;;;;;5.17;3.50;;;;;;;;;;4887792;29;21069;-87
2021/01/24 02:03:07;;;;;;;6.80;4.03;;;;;;;;;;4890802;29;20942;-86
2021/01/24 02:06:21;;;;;;;4.67;3.70;;;;;;;;;;4880244;29;20656;-86
2021/01/24 02:09:47;;;;;;;6.57;4.33;;;;;;;;;;4909800;29;20609;-89
2021/01/24 02:13:05;;;;;;;6.07;3.73;;;;;;;;;;4920181;29;20545;-87
2021/01/24 02:16:10;;;;;;;4.70;3.87;;;;;;;;;;4908941;29;20620;-88
2021/01/24 02:19:24;;;;;;;5.40;3.83;;;;;;;;;;4898512;29;20553;-87
2021/01/24 02:22:32;;;;;;;6.33;4.13;;;;;;;;;;4898841;29;20549;-86
2021/01/24 02:26:03;;;;;;;4.20;3.57;;;;;;;;;;4899021;29;20558;-86
2021/01/24 02:29:25;;;;;;;4.20;3.20;;;;;;;;;;4896406;29;20620;-86
2021/01/24 02:32:31;;;;;;;3.20;2.73;;;;;;;;;;4898353;29;20553;-89
2021/01/24 02:35:40;;;;;;;4.00;3.10;;;;;;;;;;4898748;29;20608;-88
2021/01/24 02:38:45;;;;;;;3.00;2.70;;;;;;;;;;4919988;29;20569;-86
2021/01/24 02:41:50;;;;;;;3.10;2.50;;;;;;;;;;4920193;29;20545;-86
2021/01/24 02:44:54;;;;;;;4.60;2.47;;;;;;;;;;4908756;29;21031;-90
2021/01/24 02:48:04;;;;;;;2.20;2.00;;;;;;;;;;4919448;29;20545;-88
2021/01/24 02:51:08;;;;;;;3.43;1.93;;;;;;;;;;4908685;29;20596;-88
2021/01/24 02:54:14;;;;;;;2.03;1.70;;;;;;;;;;4908617;29;20541;-88
2021/01/24 02:57:19;;;;;;;2.17;1.63;;;;;;;;;;4918991;29;20652;-87
2021/01/24 03:00:24;;;;;;;1.70;1.60;;;;;;;;;;4908282;29;20565;-87
2021/01/24 03:03:28;;;;;;;1.67;1.57;;;;;;;;;;4919339;29;21101;-86
2021/01/24 03:06:32;;;;;;;1.93;1.70;;;;;;;;;;4907834;29;21226;-88
2021/01/24 03:09:37;;;;;;;1.93;1.73;;;;;;;;;;4897237;29;20990;-88
2021/01/24 03:12:50;;;;;;;2.40;1.87;;;;;;;;;;4907670;29;20597;-87
2021/01/24 03:15:55;;;;;;;1.80;1.60;;;;;;;;;;4897399;29;20652;-88
2021/01/24 03:19:00;;;;;;;2.13;1.80;;;;;;;;;;4908274;29;20557;-88
2021/01/24 03:22:05;;;;;;;2.37;1.70;;;;;;;;;;4908157;29;20546;-88
2021/01/24 03:25:10;;;;;;;2.00;1.60;;;;;;;;;;4918680;29;20601;-88
2021/01/24 03:28:15;;;;;;;2.17;1.60;;;;;;;;;;4918940;29;20560;-87
2021/01/24 03:31:19;;;;;;;2.43;1.90;;;;;;;;;;4918448;29;20550;-88
2021/01/24 03:34:25;;;;;;;1.57;1.47;;;;;;;;;;4918857;29;21147;-87
2021/01/24 03:37:29;;;;;;;1.60;1.50;;;;;;;;;;4918747;29;20624;-87
2021/01/24 03:40:33;;;;;;;1.70;1.50;;;;;;;;;;4918161;29;20601;-87
2021/01/24 03:43:38;;;;;;;2.47;2.03;;;;;;;;;;4918212;29;20605;-87
2021/01/24 03:46:42;;;;;;;2.10;1.50;;;;;;;;;;4919067;29;20627;-87
2021/01/24 03:49:46;;;;;;;1.67;1.57;;;;;;;;;;4907805;29;21065;-88
2021/01/24 03:52:50;;;;;;;1.60;1.50;;;;;;;;;;4918320;29;20541;-87
2021/01/24 03:55:55;;;;;;;1.80;1.70;;;;;;;;;;4907522;29;20625;-88
2021/01/24 03:58:59;;;;;;;1.50;1.40;;;;;;;;;;4918122;29;20569;-88
2021/01/24 04:02:03;;;;;;;3.97;1.70;;;;;;;;;;4918526;29;20549;-87
2021/01/24 04:05:08;;;;;;;2.10;1.90;;;;;;;;;;4899162;29;20593;-85
2021/01/24 04:08:13;;;;;;;1.93;1.77;;;;;;;;;;4910340;29;20538;-86
2021/01/24 04:11:18;;;;;;;2.00;1.70;;;;;;;;;;4899142;29;20553;-85
2021/01/24 04:14:22;;;;;;;2.00;1.77;;;;;;;;;;4920454;29;20604;-85
2021/01/24 04:17:27;;;;;;;1.67;1.50;;;;;;;;;;4908232;29;21183;-84
2021/01/24 04:20:31;;;;;;;1.73;1.50;;;;;;;;;;4919420;29;20545;-86
2021/01/24 04:23:35;;;;;;;2.63;1.60;;;;;;;;;;4910044;29;20557;-87
2021/01/24 04:26:40;;;;;;;3.30;1.60;;;;;;;;;;4900332;29;20617;-87
2021/01/24 04:29:44;;;;;;;1.50;1.37;;;;;;;;;;4911003;29;20980;-86
2021/01/24 04:32:49;;;;;;;1.40;1.30;;;;;;;;;;4920902;29;20613;-87
2021/01/24 04:35:52;;;;;;;1.20;1.10;;;;;;;;;;4919188;29;20624;-86
2021/01/24 04:38:57;;;;;;;1.60;1.50;;;;;;;;;;4919083;29;20604;-86
2021/01/24 04:42:02;;;;;;;1.63;1.40;;;;;;;;;;4919200;29;20545;-86
2021/01/24 04:45:07;;;;;;;1.50;1.13;;;;;;;;;;4907695;29;21028;-84
2021/01/24 04:48:11;;;;;;;2.10;1.47;;;;;;;;;;4919330;29;20601;-85
2021/01/24 04:51:15;;;;;;;2.03;1.30;;;;;;;;;;4907967;29;20561;-87
2021/01/24 04:54:20;;;;;;;2.70;1.10;;;;;;;;;;4907374;29;20545;-87
2021/01/24 04:57:24;;;;;;;1.60;1.10;;;;;;;;;;4918900;29;20628;-87
2021/01/24 05:00:28;;;;;;;1.80;1.10;;;;;;;;;;4923982;29;20628;-87
2021/01/24 05:03:33;;;;;;;1.87;1.40;;;;;;;;;;4915418;29;21195;-87
2021/01/24 05:06:37;;;;;;;1.20;1.00;;;;;;;;;;4923073;29;20652;-88
2021/01/24 05:09:42;;;;;;;1.13;1.03;;;;;;;;;;4920614;29;20557;-87
2021/01/24 05:12:46;;;;;;;1.33;1.00;;;;;;;;;;4909063;29;21112;-87
2021/01/24 05:15:50;;;;;;;1.73;1.23;;;;;;;;;;4908625;29;20629;-87
2021/01/24 05:18:58;;;;;;;1.10;1.03;;;;;;;;;;4907153;29;20608;-84
2021/01/24 05:22:04;;;;;;;1.13;1.00;;;;;;;;;;4906253;29;20554;-83
2021/01/24 05:25:09;;;;;;;1.60;1.23;;;;;;;;;;4906020;29;20597;-86
2021/01/24 05:28:18;;;;;;;2.30;1.30;;;;;;;;;;4905578;29;20553;-86
2021/01/24 05:31:23;;;;;;;1.30;1.17;;;;;;;;;;4905923;29;20990;-86
2021/01/24 05:34:28;;;;;;;1.47;1.27;;;;;;;;;;4916873;29;20549;-85
2021/01/24 05:37:37;;;;;;;1.40;1.30;;;;;;;;;;4862263;29;20630;-87
2021/01/24 05:40:40;;;;;;;1.30;1.20;;;;;;;;;;4862168;29;20996;-85
2021/01/24 05:43:46;;;;;;;1.77;1.00;;;;;;;;;;4862004;29;20559;-85
2021/01/24 05:47:01;;;;;;;1.40;1.23;;;;;;;;;;4879204;29;20678;-85
2021/01/24 05:50:09;;;;;;;1.20;1.10;;;;;;;;;;4899022;29;20562;-85
2021/01/24 05:53:13;;;;;;;1.23;1.07;;;;;;;;;;4920200;29;20596;-85
2021/01/24 05:56:19;;;;;;;1.53;1.43;;;;;;;;;;4920615;29;20617;-85
2021/01/24 05:59:22;;;;;;;1.50;1.33;;;;;;;;;;4909614;29;20557;-85
2021/01/24 06:02:27;;;;;;;1.63;1.50;;;;;;;;;;4920585;29;21224;-85
2021/01/24 06:05:31;;;;;;;1.63;1.30;;;;;;;;;;4897952;29;20652;-85
2021/01/24 06:08:36;;;;;;;1.30;1.20;;;;;;;;;;4898491;29;20545;-85
2021/01/24 06:11:40;;;;;;;1.77;1.40;;;;;;;;;;4920178;29;20612;-85
2021/01/24 06:14:49;;;;;;;1.47;1.20;;;;;;;;;;4909237;29;20882;-85
2021/01/24 06:17:56;;;;;;;1.40;1.30;;;;;;;;;;4898620;29;20604;-85
2021/01/24 06:21:04;;;;;;;2.13;1.30;;;;;;;;;;4909340;29;20597;-84
2021/01/24 06:24:23;;;;;;;1.43;1.33;;;;;;;;;;4909036;29;20613;-85
2021/01/24 06:27:37;;;;;;;1.10;1.00;;;;;;;;;;4908921;29;20645;-85
2021/01/24 06:30:44;;;;;;;1.50;1.20;;;;;;;;;;4898225;29;21076;-85
2021/01/24 06:33:52;;;;;;;1.80;1.27;;;;;;;;;;4908932;29;20557;-85
2021/01/24 06:37:10;;;;;;;1.30;1.20;;;;;;;;;;4919771;29;20638;-85
2021/01/24 06:40:26;;;;;;;1.57;1.20;;;;;;;;;;4920617;29;20545;-86
2021/01/24 06:43:40;;;;;;;1.37;1.27;;;;;;;;;;4897558;29;20604;-87
2021/01/24 06:46:44;;;;;;;1.33;1.23;;;;;;;;;;4908372;29;20664;-87
2021/01/24 06:49:49;;;;;;;1.23;1.13;;;;;;;;;;4908647;29;20973;-87
2021/01/24 06:53:04;;;;;;;2.07;1.07;;;;;;;;;;4878988;29;20909;-88
2021/01/24 06:56:16;;;;;;;1.40;1.10;;;;;;;;;;4879102;29;20621;-88
2021/01/24 06:59:29;;;;;;;1.20;1.10;;;;;;;;;;4889462;29;20570;-89
2021/01/24 07:02:39;;;;;;;1.20;1.10;;;;;;;;;;4889472;29;20551;-89
2021/01/24 07:05:43;;;;;;;2.90;1.70;;;;;;;;;;4889246;29;20661;-89
2021/01/24 07:08:50;;;;;;;2.10;1.90;;;;;;;;;;4900674;29;20550;-91
2021/01/24 07:11:56;;;;;;;2.57;1.13;;;;;;;;;;4878657;29;20546;-89
2021/01/24 07:15:02;;;;;;;1.40;1.20;;;;;;;;;;4889099;29;20550;-88
2021/01/24 07:18:07;;;;;;;1.60;1.33;;;;;;;;;;4889446;29;21002;-88
2021/01/24 07:21:21;;;;;;;1.37;1.20;;;;;;;;;;4900693;29;20550;-88
2021/01/24 07:24:28;;;;;;;2.40;1.30;;;;;;;;;;4878946;29;20555;-88
2021/01/24 07:27:43;;;;;;;1.27;1.07;;;;;;;;;;4878530;29;21177;-89
2021/01/24 07:30:48;;;;;;;1.20;1.10;;;;;;;;;;4888910;29;20605;-89
2021/01/24 07:33:52;;;;;;;1.63;1.20;;;;;;;;;;4889136;29;20554;-89
2021/01/24 07:37:00;;;;;;;1.17;1.00;;;;;;;;;;4899714;29;20637;-91
2021/01/24 07:40:04;;;;;;;1.27;1.10;;;;;;;;;;4878494;29;20602;-88
2021/01/24 07:43:10;;;;;;;1.50;1.10;;;;;;;;;;4888958;29;21165;-89
2021/01/24 07:46:16;;;;;;;1.50;1.40;;;;;;;;;;4888971;29;21247;-89
2021/01/24 07:49:32;;;;;;;2.13;1.40;;;;;;;;;;4903228;29;20972;-89
2021/01/24 07:53:09;;;;;;;1.67;1.40;;;;;;;;;;4915783;29;21156;-89
2021/01/24 07:56:14;;;;;;;1.50;1.20;;;;;;;;;;4907854;29;20625;-89
2021/01/24 07:59:18;;;;;;;1.40;1.10;;;;;;;;;;4906944;29;20554;-89
2021/01/24 08:02:22;;;;;;;1.20;1.10;;;;;;;;;;4907306;29;20550;-86
2021/01/24 08:05:36;;;;;;;1.47;1.30;;;;;;;;;;4907166;29;21199;-87
2021/01/24 08:08:42;;;;;;;2.40;1.60;;;;;;;;;;4896588;29;20566;-88
2021/01/24 08:11:46;;;;;;;5.77;1.97;;;;;;;;;;4907303;29;20549;-88
2021/01/24 08:14:52;;;;;;;5.10;4.07;;;;;;;;;;4917696;29;20608;-88
2021/01/24 08:17:59;;;;;;;7.53;6.83;;;;;;;;;;4907260;29;20558;-88
2021/01/24 08:21:04;;;;;;;2.97;2.30;;;;;;;;;;4907115;29;20561;-87
2021/01/24 08:24:08;;;;;;;2.93;2.10;;;;;;;;;;4906846;29;20561;-88
2021/01/24 08:27:14;;;;;;;2.27;1.80;;;;;;;;;;4906742;29;20661;-88
2021/01/24 08:30:20;;;;;;;3.23;2.20;;;;;;;;;;4896092;29;20557;-88
2021/01/24 08:33:24;;;;;;;2.37;2.17;;;;;;;;;;4906859;29;21194;-89
2021/01/24 08:36:29;;;;;;;4.00;2.33;;;;;;;;;;4906632;29;21011;-89
2021/01/24 08:39:34;;;;;;;3.37;2.70;;;;;;;;;;4917710;29;20549;-89
2021/01/24 08:42:45;;;;;;;4.63;3.63;;;;;;;;;;4895936;29;20630;-88
2021/01/24 08:45:49;;;;;;;2.70;2.50;;;;;;;;;;4917424;29;20661;-89
2021/01/24 08:49:08;;;;;;;3.70;3.40;;;;;;;;;;4896017;29;20553;-89
2021/01/24 08:52:20;;;;;;;2.77;2.00;;;;;;;;;;4917253;29;20561;-88
2021/01/24 08:55:25;;;;;;;4.10;2.47;;;;;;;;;;4906143;29;20558;-86
2021/01/24 08:58:29;;;;;;;3.40;3.00;;;;;;;;;;4895576;29;20565;-88
2021/01/24 09:01:43;;;;;;;4.43;2.57;;;;;;;;;;4917129;29;20608;-89
2021/01/24 09:04:48;;;;;;;4.00;3.10;;;;;;;;;;4895650;29;21024;-89
2021/01/24 09:07:52;;;;;;;4.40;3.00;;;;;;;;;;4916998;29;20967;-89
2021/01/24 09:10:57;;;;;;;3.07;2.20;;;;;;;;;;4916903;29;21108;-91
2021/01/24 09:14:01;;;;;;;4.30;2.40;;;;;;;;;;4906795;29;20542;-88
2021/01/24 09:17:13;;;;;;;2.90;2.50;;;;;;;;;;4905711;29;20621;-88
2021/01/24 09:20:17;;;;;;;4.00;2.40;;;;;;;;;;4906101;29;20553;-88
2021/01/24 09:23:22;;;;;;;4.07;2.63;;;;;;;;;;4905570;29;20985;-87
2021/01/24 09:26:26;;;;;;;9.70;4.43;;;;;;;;;;4905671;29;20660;-88
2021/01/24 09:29:30;;;;;;;4.00;2.27;;;;;;;;;;4917206;29;20547;-87
2021/01/24 09:32:35;;;;;;;3.03;2.00;;;;;;;;;;4905818;29;20557;-88
2021/01/24 09:35:39;;;;;;;2.53;1.80;;;;;;;;;;4906001;29;20609;-86
2021/01/24 09:38:43;;;;;;;3.43;2.50;;;;;;;;;;4916706;29;20593;-89
2021/01/24 09:41:48;;;;;;;5.63;5.03;;;;;;;;;;4905511;29;20616;-89
2021/01/24 09:44:52;;;;;;;2.47;1.90;;;;;;;;;;4916847;29;20545;-89
2021/01/24 09:47:56;;;;;;;4.63;1.73;;;;;;;;;;4906155;29;20972;-88
2021/01/24 09:51:08;;;;;;;1.93;1.63;;;;;;;;;;4905914;29;20542;-90
2021/01/24 09:54:37;;;;;;;4.13;2.43;;;;;;;;;;4896160;29;20985;-89
2021/01/24 09:57:58;;;;;;;7.83;5.17;;;;;;;;;;4895174;29;20648;-87
2021/01/24 10:01:08;;;;;;;2.33;2.03;;;;;;;;;;4905923;29;20609;-88
2021/01/24 10:04:43;;;;;;;3.00;2.33;;;;;;;;;;4906292;29;20613;-88
2021/01/24 10:07:56;;;;;;;6.60;4.90;;;;;;;;;;4868591;29;20615;-87
2021/01/24 10:11:03;;;;;;;3.10;2.30;;;;;;;;;;4868902;29;21099;-87
2021/01/24 10:14:12;;;;;;;3.03;2.70;;;;;;;;;;4869766;29;20543;-87
2021/01/24 10:17:16;;;;;;;3.60;2.43;;;;;;;;;;4869360;29;21184;-87
2021/01/24 10:20:20;;;;;;;2.90;1.80;;;;;;;;;;4887594;29;20604;-87
2021/01/24 10:23:25;;;;;;;3.13;2.40;;;;;;;;;;4921363;29;20596;-87
2021/01/24 10:26:29;;;;;;;3.93;2.80;;;;;;;;;;4910834;29;20664;-87
2021/01/24 10:29:33;;;;;;;6.73;3.87;;;;;;;;;;4910424;29;20557;-86
2021/01/24 10:32:40;;;;;;;3.90;2.90;;;;;;;;;;4909775;29;20600;-86
2021/01/24 10:35:45;;;;;;;11.77;5.57;;;;;;;;;;4910184;29;20636;-87
2021/01/24 10:38:50;;;;;;;5.50;2.90;;;;;;;;;;4923289;29;20549;-86
2021/01/24 10:41:54;;;;;;;3.87;2.70;;;;;;;;;;4923269;29;21123;-87
2021/01/24 10:44:58;;;;;;;6.10;4.33;;;;;;;;;;4912302;29;20545;-87
2021/01/24 10:48:04;;;;;;;3.17;2.63;;;;;;;;;;4910977;29;21178;-87
2021/01/24 10:51:08;;;;;;;4.00;2.77;;;;;;;;;;4909470;29;20541;-87
2021/01/24 10:54:12;;;;;;;3.00;2.80;;;;;;;;;;4908604;29;20553;-87
2021/01/24 10:57:16;;;;;;;3.60;2.50;;;;;;;;;;4908933;29;20632;-87
2021/01/24 11:00:21;;;;;;;3.93;2.80;;;;;;;;;;4882649;29;20558;-87
2021/01/24 11:03:26;;;;;;;3.23;2.30;;;;;;;;;;4881869;29;20563;-88
2021/01/24 11:06:30;;;;;;;3.77;2.30;;;;;;;;;;4899898;29;20680;-87
2021/01/24 11:09:34;;;;;;;2.13;1.80;;;;;;;;;;4897845;29;20593;-87
2021/01/24 11:12:38;;;;;;;3.90;2.10;;;;;;;;;;4908042;29;21100;-89
2021/01/24 11:15:42;;;;;;;4.60;2.47;;;;;;;;;;4920697;29;20648;-88
2021/01/24 11:18:47;;;;;;;2.40;2.00;;;;;;;;;;4920785;29;20583;-88
2021/01/24 11:21:51;;;;;;;2.63;1.80;;;;;;;;;;4924730;29;20605;-87
2021/01/24 11:24:55;;;;;;;1.97;1.77;;;;;;;;;;4899001;29;21112;-87
2021/01/24 11:28:00;;;;;;;2.67;1.73;;;;;;;;;;4920056;29;20597;-87
2021/01/24 11:31:04;;;;;;;1.93;1.63;;;;;;;;;;4895106;29;20596;-88
2021/01/24 11:34:08;;;;;;;3.87;2.00;;;;;;;;;;4907278;29;20600;-87
2021/01/24 11:37:12;;;;;;;2.33;1.53;;;;;;;;;;4897081;29;20620;-88
2021/01/24 11:40:17;;;;;;;2.93;1.60;;;;;;;;;;4908294;29;20557;-89
2021/01/24 11:43:21;;;;;;;3.10;1.90;;;;;;;;;;4889041;29;20609;-88
2021/01/24 11:46:27;;;;;;;2.00;1.60;;;;;;;;;;4907508;29;20656;-87
2021/01/24 11:49:32;;;;;;;2.00;1.80;;;;;;;;;;4897122;29;20581;-88
2021/01/24 11:52:36;;;;;;;3.50;2.17;;;;;;;;;;4918953;29;20550;-88
2021/01/24 11:55:40;;;;;;;2.47;2.00;;;;;;;;;;4897836;29;20549;-88
2021/01/24 11:58:47;;;;;;;4.73;2.77;;;;;;;;;;4919132;29;20601;-89
2021/01/24 12:01:52;;;;;;;1.83;1.70;;;;;;;;;;4907899;29;20562;-88
2021/01/24 12:04:56;;;;;;;3.63;2.10;;;;;;;;;;4897890;29;20924;-89
2021/01/24 12:08:00;;;;;;;2.87;1.70;;;;;;;;;;4918706;29;21188;-89
2021/01/24 12:11:05;;;;;;;1.40;1.30;;;;;;;;;;4893404;29;20618;-89
2021/01/24 12:14:09;;;;;;;7.87;3.30;;;;;;;;;;4890690;29;21078;-88
2021/01/24 12:17:23;;;;;;;5.30;2.37;;;;;;;;;;4900564;29;20629;-89
2021/01/24 12:20:28;;;;;;;5.10;2.40;;;;;;;;;;4890236;29;20910;-88
2021/01/24 12:23:32;;;;;;;10.13;4.97;;;;;;;;;;4889227;29;21081;-88
2021/01/24 12:26:36;;;;;;;8.10;3.90;;;;;;;;;;4869075;29;20627;-87
2021/01/24 12:29:41;;;;;;;5.43;2.67;;;;;;;;;;4880290;29;20551;-87
2021/01/24 12:32:45;;;;;;;5.07;3.20;;;;;;;;;;4869179;29;20555;-88
2021/01/24 12:35:49;;;;;;;4.57;2.83;;;;;;;;;;4869593;29;20626;-87
2021/01/24 12:38:54;;;;;;;6.27;2.70;;;;;;;;;;4869081;29;20539;-87
2021/01/24 12:41:58;;;;;;;3.57;2.03;;;;;;;;;;4879823;29;20606;-87
2021/01/24 12:45:04;;;;;;;3.03;1.93;;;;;;;;;;4858231;29;20610;-88
2021/01/24 12:48:08;;;;;;;4.23;2.10;;;;;;;;;;4869315;29;20599;-88
2021/01/24 12:51:12;;;;;;;3.47;2.07;;;;;;;;;;4879740;29;21093;-89
2021/01/24 12:54:16;;;;;;;2.13;1.83;;;;;;;;;;4879624;29;20540;-89
2021/01/24 12:57:21;;;;;;;2.60;1.73;;;;;;;;;;4916887;29;20996;-89
2021/01/24 13:00:25;;;;;;;4.03;1.70;;;;;;;;;;4906859;29;20874;-89
2021/01/24 13:03:29;;;;;;;2.63;1.80;;;;;;;;;;4906563;29;20545;-90
2021/01/24 13:06:34;;;;;;;2.23;1.70;;;;;;;;;;4905955;29;20648;-88
2021/01/24 13:09:41;;;;;;;1.50;1.40;;;;;;;;;;4905970;29;20549;-88
2021/01/24 13:12:45;;;;;;;2.63;1.70;;;;;;;;;;4868606;29;20577;-88
2021/01/24 13:15:50;;;;;;;2.33;1.53;;;;;;;;;;4868696;29;20638;-88
2021/01/24 13:18:54;;;;;;;2.33;2.13;;;;;;;;;;4858320;29;21083;-88
2021/01/24 13:21:58;;;;;;;5.90;2.73;;;;;;;;;;4868576;29;21106;-90
2021/01/24 13:25:02;;;;;;;1.90;1.70;;;;;;;;;;4897313;29;20609;-89
2021/01/24 13:28:07;;;;;;;2.13;1.70;;;;;;;;;;4906379;29;20601;-88
2021/01/24 13:31:12;;;;;;;5.80;4.13;;;;;;;;;;4906337;29;20553;-88
2021/01/24 13:34:17;;;;;;;8.13;4.03;;;;;;;;;;4896030;29;20550;-88
2021/01/24 13:37:21;;;;;;;3.30;2.37;;;;;;;;;;4906157;29;20656;-88
2021/01/24 13:40:26;;;;;;;2.90;1.77;;;;;;;;;;4916439;29;20894;-88
2021/01/24 13:43:30;;;;;;;1.87;1.37;;;;;;;;;;4916482;29;20558;-88
2021/01/24 13:46:34;;;;;;;2.60;1.83;;;;;;;;;;4905636;29;21183;-88
2021/01/24 13:49:40;;;;;;;3.67;1.90;;;;;;;;;;4905823;29;20538;-88
2021/01/24 13:52:44;;;;;;;2.10;1.77;;;;;;;;;;4905610;29;20616;-88
2021/01/24 13:55:48;;;;;;;2.43;1.80;;;;;;;;;;4916649;29;20985;-87
2021/01/24 13:58:52;;;;;;;9.87;6.13;;;;;;;;;;4909250;29;20601;-89
2021/01/24 14:01:56;;;;;;;2.63;1.77;;;;;;;;;;4898928;29;20597;-87
2021/01/24 14:05:01;;;;;;;4.87;2.80;;;;;;;;;;4909527;29;20604;-88
2021/01/24 14:08:06;;;;;;;25.53;13.87;;;;;;;;;;4909448;29;20609;-88
2021/01/24 14:11:12;;;;;;;10.27;6.93;;;;;;;;;;4898251;29;20561;-88
2021/01/24 14:14:17;;;;;;;27.67;15.67;;;;;;;;;;4919678;29;20601;-89
2021/01/24 14:17:21;;;;;;;6.37;3.60;;;;;;;;;;4909101;29;20620;-88
2021/01/24 14:20:26;;;;;;;3.63;2.40;;;;;;;;;;4909123;29;20549;-88
2021/01/24 14:23:30;;;;;;;6.27;4.07;;;;;;;;;;4898305;29;20553;-88
2021/01/24 14:26:34;;;;;;;9.70;6.43;;;;;;;;;;4919651;29;20648;-89
2021/01/24 14:29:38;;;;;;;4.40;3.10;;;;;;;;;;4909122;29;20596;-87
2021/01/24 14:32:45;;;;;;;2.07;1.90;;;;;;;;;;4908923;29;20567;-87
2021/01/24 14:35:48;;;;;;;4.87;3.73;;;;;;;;;;4908903;29;20636;-87
2021/01/24 14:38:56;;;;;;;4.67;2.50;;;;;;;;;;4897943;29;20960;-87
2021/01/24 14:42:00;;;;;;;7.33;3.10;;;;;;;;;;4897911;29;20612;-88
2021/01/24 14:45:06;;;;;;;10.03;6.33;;;;;;;;;;4897568;29;20557;-87
2021/01/24 14:48:12;;;;;;;21.13;14.97;;;;;;;;;;4919687;29;21124;-87
2021/01/24 14:51:16;;;;;;;6.57;4.30;;;;;;;;;;4898085;29;21108;-88
2021/01/24 14:54:21;;;;;;;7.83;4.23;;;;;;;;;;4919732;29;20545;-87
2021/01/24 14:57:25;;;;;;;3.80;3.40;;;;;;;;;;4907990;29;20648;-88
2021/01/24 15:00:30;;;;;;;5.50;3.57;;;;;;;;;;4919628;29;20565;-87
2021/01/24 15:03:34;;;;;;;7.60;3.20;;;;;;;;;;4919503;29;20557;-86
2021/01/24 15:06:38;;;;;;;7.53;4.93;;;;;;;;;;4918656;29;20636;-88
2021/01/24 15:09:43;;;;;;;10.03;5.87;;;;;;;;;;4918990;29;20894;-88
2021/01/24 15:12:46;;;;;;;10.63;6.33;;;;;;;;;;4897221;29;20557;-87
2021/01/24 15:15:51;;;;;;;6.60;5.07;;;;;;;;;;4908200;29;20635;-87
2021/01/24 15:18:55;;;;;;;5.33;3.90;;;;;;;;;;4919041;29;20549;-87
2021/01/24 15:21:59;;;;;;;3.10;2.50;;;;;;;;;;4918908;29;20565;-87
2021/01/24 15:25:04;;;;;;;7.73;5.40;;;;;;;;;;4907804;29;20553;-88
2021/01/24 15:28:08;;;;;;;3.07;2.50;;;;;;;;;;4919065;29;20601;-87
2021/01/24 15:31:13;;;;;;;2.53;1.80;;;;;;;;;;4918759;29;20596;-86
2021/01/24 15:34:17;;;;;;;5.47;1.90;;;;;;;;;;4918550;29;20882;-87
2021/01/24 15:37:23;;;;;;;1.97;1.40;;;;;;;;;;4918534;29;20627;-87
2021/01/24 15:40:27;;;;;;;2.77;1.50;;;;;;;;;;4918409;29;20554;-87
2021/01/24 15:43:31;;;;;;;5.07;1.60;;;;;;;;;;4907555;29;20592;-88
2021/01/24 15:46:37;;;;;;;2.47;1.70;;;;;;;;;;4907222;29;20652;-88
2021/01/24 15:49:42;;;;;;;3.97;2.00;;;;;;;;;;4907747;29;20999;-88
2021/01/24 15:52:46;;;;;;;2.97;2.00;;;;;;;;;;4907081;29;21092;-87
2021/01/24 15:55:50;;;;;;;3.37;1.80;;;;;;;;;;4918998;29;20632;-87
2021/01/24 15:58:55;;;;;;;3.70;1.90;;;;;;;;;;4908360;29;20545;-87
2021/01/24 16:01:59;;;;;;;3.13;2.07;;;;;;;;;;4907370;29;20605;-86
2021/01/24 16:05:05;;;;;;;6.30;2.63;;;;;;;;;;4917731;29;20609;-88
2021/01/24 16:08:10;;;;;;;3.67;2.50;;;;;;;;;;4869761;29;20619;-88
2021/01/24 16:11:15;;;;;;;2.83;2.10;;;;;;;;;;4880748;29;20563;-87
2021/01/24 16:14:20;;;;;;;2.57;2.00;;;;;;;;;;4891524;29;20544;-88
2021/01/24 16:17:24;;;;;;;4.67;2.67;;;;;;;;;;4890690;29;21002;-87
2021/01/24 16:20:29;;;;;;;17.70;11.30;;;;;;;;;;4879146;29;20555;-87
2021/01/24 16:23:34;;;;;;;9.27;4.23;;;;;;;;;;4880191;29;20547;-87
2021/01/24 16:26:38;;;;;;;9.17;5.33;;;;;;;;;;4891115;29;20630;-87
2021/01/24 16:29:43;;;;;;;4.27;2.53;;;;;;;;;;4880301;29;20598;-88
2021/01/24 16:32:48;;;;;;;3.10;2.10;;;;;;;;;;4880104;29;20884;-87
2021/01/24 16:35:52;;;;;;;4.33;2.17;;;;;;;;;;4880168;29;20626;-87
2021/01/24 16:38:56;;;;;;;7.40;5.43;;;;;;;;;;4869246;29;20547;-87
2021/01/24 16:42:03;;;;;;;6.07;3.40;;;;;;;;;;4880148;29;20552;-87
2021/01/24 16:45:08;;;;;;;27.40;13.57;;;;;;;;;;4890317;29;20923;-87
2021/01/24 16:48:13;;;;;;;11.23;6.80;;;;;;;;;;4890554;29;20599;-87
2021/01/24 16:51:18;;;;;;;5.23;2.87;;;;;;;;;;4858885;29;21143;-87
2021/01/24 16:54:22;;;;;;;7.13;3.87;;;;;;;;;;4880278;29;20543;-87
2021/01/24 16:57:27;;;;;;;6.67;4.47;;;;;;;;;;4879436;29;21197;-87
2021/01/24 17:00:31;;;;;;;3.50;2.73;;;;;;;;;;4879667;29;20594;-86
2021/01/24 17:03:35;;;;;;;4.73;3.97;;;;;;;;;;4880110;29;20567;-86
2021/01/24 17:06:39;;;;;;;4.20;2.80;;;;;;;;;;4890151;29;20642;-86
2021/01/24 17:09:46;;;;;;;2.73;2.23;;;;;;;;;;4890033;29;20620;-86
2021/01/24 17:12:51;;;;;;;7.87;3.47;;;;;;;;;;4879918;29;20615;-86
2021/01/24 17:15:55;;;;;;;4.10;2.77;;;;;;;;;;4858391;29;21213;-86
2021/01/24 17:19:00;;;;;;;5.90;4.03;;;;;;;;;;4905691;29;20956;-87
2021/01/24 17:22:05;;;;;;;3.80;3.07;;;;;;;;;;4906327;29;20561;-87
2021/01/24 17:25:10;;;;;;;5.20;3.10;;;;;;;;;;4917573;29;20553;-87
2021/01/24 17:28:13;;;;;;;7.60;4.33;;;;;;;;;;4906255;29;20906;-87
2021/01/24 17:31:18;;;;;;;5.80;3.03;;;;;;;;;;4896533;29;20553;-90
2021/01/24 17:34:23;;;;;;;13.43;7.60;;;;;;;;;;4907614;29;20545;-89
2021/01/24 17:37:27;;;;;;;9.03;5.67;;;;;;;;;;4918628;29;20629;-91
2021/01/24 17:40:32;;;;;;;9.50;6.17;;;;;;;;;;4895837;29;20620;-88
2021/01/24 17:43:36;;;;;;;17.97;12.37;;;;;;;;;;4906012;29;20628;-88
2021/01/24 17:46:40;;;;;;;5.60;3.73;;;;;;;;;;4907489;29;20644;-89
2021/01/24 17:49:46;;;;;;;5.50;3.17;;;;;;;;;;4896314;29;20996;-89
2021/01/24 17:52:50;;;;;;;3.67;2.20;;;;;;;;;;4895266;29;20604;-87
2021/01/24 17:55:55;;;;;;;4.83;2.80;;;;;;;;;;4906808;29;20636;-87
2021/01/24 17:58:59;;;;;;;4.83;3.63;;;;;;;;;;4916525;29;20542;-86
2021/01/24 18:02:08;;;;;;;4.70;4.13;;;;;;;;;;4917158;29;20917;-87
2021/01/24 18:05:13;;;;;;;4.07;2.63;;;;;;;;;;4895422;29;20929;-87
2021/01/24 18:08:17;;;;;;;3.07;2.10;;;;;;;;;;4916597;29;20553;-86
2021/01/24 18:11:21;;;;;;;5.10;2.30;;;;;;;;;;4916800;29;20601;-87
2021/01/24 18:14:27;;;;;;;5.50;3.00;;;;;;;;;;4916749;29;20565;-86
2021/01/24 18:17:31;;;;;;;11.87;6.87;;;;;;;;;;4916578;29;20620;-86
2021/01/24 18:20:36;;;;;;;5.03;4.00;;;;;;;;;;4916759;29;20549;-87
2021/01/24 18:23:40;;;;;;;4.47;3.17;;;;;;;;;;4906045;29;20545;-87
2021/01/24 18:26:44;;;;;;;4.23;2.53;;;;;;;;;;4917101;29;20620;-87
2021/01/24 18:29:48;;;;;;;3.60;2.37;;;;;;;;;;4894703;29;20613;-87
2021/01/24 18:32:53;;;;;;;3.80;1.90;;;;;;;;;;4916836;29;20545;-86